sensor_id;sensor_type;location;lat;lon;timestamp;P1;durP1;ratioP1;P2;durP2;ratioP2
23588;SDS011;11972;48.078;11.876;2023-02-13T00:00:38;44.42;;;15.98;;
23588;SDS011;11972;48.078;11.876;2023-02-13T00:04:39;36.83;;;15.90;;
23588;SDS011;11972;48.078;11.876;2023-02-13T00:08:41;52.08;;;17.27;;
23588;SDS011;11972;48.078;11.876;2023-02-13T00:12:42;34.92;;;16.40;;
23588;SDS011;11972;48.078;11.876;2023-02-13T00:16:42;47.50;;;16.77;;
23588;SDS011;11972;48.078;11.876;2023-02-13T00:20:43;37.92;;;16.92;;
23588;SDS011;11972;48.078;11.876;2023-02-13T00:24:44;49.35;;;18.35;;
23588;SDS011;11972;48.078;11.876;2023-02-13T00:28:44;66.63;;;18.05;;
23588;SDS011;11972;48.078;11.876;2023-02-13T00:32:45;52.67;;;17.90;;
23588;SDS011;11972;48.078;11.876;2023-02-13T00:36:45;59.80;;;17.90;;
23588;SDS011;11972;48.078;11.876;2023-02-13T00:40:45;76.72;;;18.15;;
23588;SDS011;11972;48.078;11.876;2023-02-13T00:44:46;54.65;;;18.10;;
23588;SDS011;11972;48.078;11.876;2023-02-13T00:48:47;48.85;;;15.60;;
23588;SDS011;11972;48.078;11.876;2023-02-13T00:52:51;93.45;;;16.10;;
23588;SDS011;11972;48.078;11.876;2023-02-13T00:56:51;63.15;;;14.50;;
23588;SDS011;11972;48.078;11.876;2023-02-13T01:00:52;54.10;;;14.35;;
23588;SDS011;11972;48.078;11.876;2023-02-13T01:04:53;69.22;;;14.00;;
23588;SDS011;11972;48.078;11.876;2023-02-13T01:08:54;31.40;;;12.40;;
23588;SDS011;11972;48.078;11.876;2023-02-13T01:12:54;58.22;;;13.52;;
23588;SDS011;11972;48.078;11.876;2023-02-13T01:16:54;47.38;;;13.05;;
23588;SDS011;11972;48.078;11.876;2023-02-13T01:21:03;68.75;;;13.10;;
23588;SDS011;11972;48.078;11.876;2023-02-13T01:25:09;55.33;;;14.13;;
23588;SDS011;11972;48.078;11.876;2023-02-13T01:29:12;32.10;;;13.05;;
23588;SDS011;11972;48.078;11.876;2023-02-13T01:33:13;76.63;;;13.15;;
23588;SDS011;11972;48.078;11.876;2023-02-13T01:37:16;38.35;;;12.98;;
23588;SDS011;11972;48.078;11.876;2023-02-13T01:41:17;33.28;;;14.13;;
23588;SDS011;11972;48.078;11.876;2023-02-13T01:45:25;22.70;;;12.18;;
23588;SDS011;11972;48.078;11.876;2023-02-13T01:49:29;26.30;;;11.13;;
23588;SDS011;11972;48.078;11.876;2023-02-13T01:57:46;35.58;;;11.65;;
23588;SDS011;11972;48.078;11.876;2023-02-13T02:01:55;21.15;;;11.82;;
23588;SDS011;11972;48.078;11.876;2023-02-13T02:05:58;41.45;;;11.20;;
23588;SDS011;11972;48.078;11.876;2023-02-13T02:10:02;26.33;;;11.93;;
23588;SDS011;11972;48.078;11.876;2023-02-13T02:14:06;24.35;;;11.23;;
23588;SDS011;11972;48.078;11.876;2023-02-13T02:18:14;14.00;;;9.70;;
23588;SDS011;11972;48.078;11.876;2023-02-13T02:22:39;20.50;;;9.57;;
23588;SDS011;11972;48.078;11.876;2023-02-13T02:27:25;24.52;;;10.35;;
23588;SDS011;11972;48.078;11.876;2023-02-13T02:35:51;19.88;;;9.40;;
23588;SDS011;11972;48.078;11.876;2023-02-13T02:40:09;37.78;;;9.80;;
23588;SDS011;11972;48.078;11.876;2023-02-13T02:44:17;31.30;;;10.32;;
23588;SDS011;11972;48.078;11.876;2023-02-13T02:48:47;36.67;;;10.50;;
23588;SDS011;11972;48.078;11.876;2023-02-13T03:02:24;41.33;;;10.38;;
23588;SDS011;11972;48.078;11.876;2023-02-13T03:10:44;38.35;;;10.23;;
23588;SDS011;11972;48.078;11.876;2023-02-13T03:15:04;38.28;;;10.82;;
23588;SDS011;11972;48.078;11.876;2023-02-13T03:19:11;33.55;;;10.57;;
23588;SDS011;11972;48.078;11.876;2023-02-13T03:23:54;33.23;;;10.83;;
23588;SDS011;11972;48.078;11.876;2023-02-13T03:32:48;58.42;;;10.80;;
23588;SDS011;11972;48.078;11.876;2023-02-13T03:37:01;41.13;;;10.45;;
23588;SDS011;11972;48.078;11.876;2023-02-13T03:41:29;51.00;;;9.75;;
23588;SDS011;11972;48.078;11.876;2023-02-13T03:45:51;25.55;;;9.60;;
23588;SDS011;11972;48.078;11.876;2023-02-13T03:49:52;30.60;;;9.88;;
23588;SDS011;11972;48.078;11.876;2023-02-13T03:54:06;17.38;;;8.38;;
23588;SDS011;11972;48.078;11.876;2023-02-13T03:58:17;83.35;;;10.60;;
23588;SDS011;11972;48.078;11.876;2023-02-13T04:02:45;29.52;;;9.38;;
23588;SDS011;11972;48.078;11.876;2023-02-13T04:19:31;49.70;;;9.98;;
23588;SDS011;11972;48.078;11.876;2023-02-13T04:23:33;28.27;;;10.57;;
23588;SDS011;11972;48.078;11.876;2023-02-13T04:27:33;38.03;;;9.90;;
23588;SDS011;11972;48.078;11.876;2023-02-13T04:31:34;36.65;;;10.13;;
23588;SDS011;11972;48.078;11.876;2023-02-13T04:35:34;30.45;;;9.85;;
23588;SDS011;11972;48.078;11.876;2023-02-13T04:39:34;31.02;;;10.75;;
23588;SDS011;11972;48.078;11.876;2023-02-13T04:43:35;42.40;;;10.80;;
23588;SDS011;11972;48.078;11.876;2023-02-13T04:47:35;30.33;;;9.52;;
23588;SDS011;11972;48.078;11.876;2023-02-13T04:51:36;33.78;;;10.75;;
23588;SDS011;11972;48.078;11.876;2023-02-13T04:55:36;41.92;;;10.45;;
23588;SDS011;11972;48.078;11.876;2023-02-13T04:59:36;46.53;;;11.07;;
23588;SDS011;11972;48.078;11.876;2023-02-13T05:03:37;45.08;;;11.25;;
23588;SDS011;11972;48.078;11.876;2023-02-13T05:07:37;39.60;;;11.45;;
23588;SDS011;11972;48.078;11.876;2023-02-13T05:11:37;19.15;;;11.20;;
23588;SDS011;11972;48.078;11.876;2023-02-13T05:15:38;29.35;;;11.07;;
23588;SDS011;11972;48.078;11.876;2023-02-13T05:19:38;19.80;;;10.10;;
23588;SDS011;11972;48.078;11.876;2023-02-13T05:23:39;25.13;;;10.57;;
23588;SDS011;11972;48.078;11.876;2023-02-13T05:27:39;34.15;;;10.85;;
23588;SDS011;11972;48.078;11.876;2023-02-13T05:31:39;23.05;;;9.88;;
23588;SDS011;11972;48.078;11.876;2023-02-13T05:35:40;24.20;;;10.60;;
23588;SDS011;11972;48.078;11.876;2023-02-13T05:39:40;22.83;;;10.73;;
23588;SDS011;11972;48.078;11.876;2023-02-13T05:43:40;22.75;;;10.73;;
23588;SDS011;11972;48.078;11.876;2023-02-13T05:47:40;15.88;;;9.45;;
23588;SDS011;11972;48.078;11.876;2023-02-13T05:51:41;19.98;;;9.90;;
23588;SDS011;11972;48.078;11.876;2023-02-13T05:55:42;28.42;;;9.48;;
23588;SDS011;11972;48.078;11.876;2023-02-13T05:59:42;35.38;;;10.07;;
23588;SDS011;11972;48.078;11.876;2023-02-13T06:03:42;79.03;;;11.65;;
23588;SDS011;11972;48.078;11.876;2023-02-13T06:07:43;44.97;;;10.38;;
23588;SDS011;11972;48.078;11.876;2023-02-13T06:11:43;24.15;;;9.45;;
23588;SDS011;11972;48.078;11.876;2023-02-13T06:15:44;37.20;;;9.95;;
23588;SDS011;11972;48.078;11.876;2023-02-13T06:19:44;33.83;;;10.32;;
23588;SDS011;11972;48.078;11.876;2023-02-13T06:23:44;27.08;;;10.43;;
23588;SDS011;11972;48.078;11.876;2023-02-13T06:27:45;54.67;;;10.70;;
23588;SDS011;11972;48.078;11.876;2023-02-13T06:31:45;49.78;;;10.75;;
23588;SDS011;11972;48.078;11.876;2023-02-13T06:35:46;54.50;;;10.43;;
23588;SDS011;11972;48.078;11.876;2023-02-13T06:39:46;57.28;;;10.88;;
23588;SDS011;11972;48.078;11.876;2023-02-13T06:43:46;23.00;;;10.10;;
23588;SDS011;11972;48.078;11.876;2023-02-13T06:47:47;25.23;;;10.27;;
23588;SDS011;11972;48.078;11.876;2023-02-13T06:51:48;48.67;;;10.30;;
23588;SDS011;11972;48.078;11.876;2023-02-13T06:55:48;20.70;;;10.30;;
23588;SDS011;11972;48.078;11.876;2023-02-13T06:59:48;13.93;;;9.35;;
23588;SDS011;11972;48.078;11.876;2023-02-13T07:03:49;16.90;;;9.70;;
23588;SDS011;11972;48.078;11.876;2023-02-13T07:07:49;25.27;;;9.50;;
23588;SDS011;11972;48.078;11.876;2023-02-13T07:11:49;19.77;;;9.82;;
23588;SDS011;11972;48.078;11.876;2023-02-13T07:15:50;38.70;;;10.45;;
23588;SDS011;11972;48.078;11.876;2023-02-13T07:19:50;21.48;;;9.70;;
23588;SDS011;11972;48.078;11.876;2023-02-13T07:23:51;32.45;;;9.82;;
23588;SDS011;11972;48.078;11.876;2023-02-13T07:27:51;35.42;;;10.98;;
23588;SDS011;11972;48.078;11.876;2023-02-13T07:31:52;39.58;;;10.40;;
23588;SDS011;11972;48.078;11.876;2023-02-13T07:35:52;25.58;;;10.50;;
23588;SDS011;11972;48.078;11.876;2023-02-13T07:39:52;20.83;;;10.00;;
23588;SDS011;11972;48.078;11.876;2023-02-13T07:43:53;21.63;;;9.45;;
23588;SDS011;11972;48.078;11.876;2023-02-13T07:47:54;11.98;;;9.85;;
23588;SDS011;11972;48.078;11.876;2023-02-13T07:51:55;27.42;;;9.45;;
23588;SDS011;11972;48.078;11.876;2023-02-13T07:55:57;33.35;;;9.95;;
23588;SDS011;11972;48.078;11.876;2023-02-13T07:59:57;19.95;;;9.63;;
23588;SDS011;11972;48.078;11.876;2023-02-13T08:03:57;19.25;;;10.88;;
23588;SDS011;11972;48.078;11.876;2023-02-13T08:07:58;13.15;;;9.02;;
23588;SDS011;11972;48.078;11.876;2023-02-13T08:11:58;18.60;;;9.65;;
23588;SDS011;11972;48.078;11.876;2023-02-13T08:15:59;24.65;;;9.73;;
23588;SDS011;11972;48.078;11.876;2023-02-13T08:19:59;15.93;;;9.68;;
23588;SDS011;11972;48.078;11.876;2023-02-13T08:23:59;13.63;;;9.82;;
23588;SDS011;11972;48.078;11.876;2023-02-13T08:28:00;15.73;;;9.43;;
23588;SDS011;11972;48.078;11.876;2023-02-13T08:32:00;17.92;;;9.77;;
23588;SDS011;11972;48.078;11.876;2023-02-13T08:36:04;17.40;;;10.05;;
23588;SDS011;11972;48.078;11.876;2023-02-13T08:40:05;14.77;;;9.95;;
23588;SDS011;11972;48.078;11.876;2023-02-13T08:44:09;13.50;;;9.48;;
23588;SDS011;11972;48.078;11.876;2023-02-13T08:48:10;12.50;;;9.70;;
23588;SDS011;11972;48.078;11.876;2023-02-13T08:52:10;11.18;;;9.32;;
23588;SDS011;11972;48.078;11.876;2023-02-13T08:56:10;12.90;;;8.75;;
23588;SDS011;11972;48.078;11.876;2023-02-13T09:00:11;10.85;;;9.00;;
23588;SDS011;11972;48.078;11.876;2023-02-13T09:04:12;11.43;;;9.82;;
23588;SDS011;11972;48.078;11.876;2023-02-13T09:08:17;11.25;;;9.57;;
23588;SDS011;11972;48.078;11.876;2023-02-13T09:12:17;14.55;;;8.80;;
23588;SDS011;11972;48.078;11.876;2023-02-13T09:16:17;10.40;;;8.32;;
23588;SDS011;11972;48.078;11.876;2023-02-13T09:20:18;11.25;;;9.73;;
23588;SDS011;11972;48.078;11.876;2023-02-13T09:24:18;12.70;;;9.00;;
23588;SDS011;11972;48.078;11.876;2023-02-13T09:28:19;11.40;;;9.38;;
23588;SDS011;11972;48.078;11.876;2023-02-13T09:32:19;11.13;;;9.93;;
23588;SDS011;11972;48.078;11.876;2023-02-13T09:36:20;12.95;;;10.02;;
23588;SDS011;11972;48.078;11.876;2023-02-13T09:40:24;13.02;;;9.85;;
23588;SDS011;11972;48.078;11.876;2023-02-13T09:44:35;11.52;;;9.75;;
23588;SDS011;11972;48.078;11.876;2023-02-13T09:48:42;13.98;;;11.05;;
23588;SDS011;11972;48.078;11.876;2023-02-13T09:52:45;12.88;;;10.43;;
23588;SDS011;11972;48.078;11.876;2023-02-13T09:56:55;13.40;;;10.57;;
23588;SDS011;11972;48.078;11.876;2023-02-13T10:01:02;13.13;;;10.30;;
23588;SDS011;11972;48.078;11.876;2023-02-13T10:09:31;12.57;;;10.18;;
23588;SDS011;11972;48.078;11.876;2023-02-13T10:17:47;15.95;;;11.45;;
23588;SDS011;11972;48.078;11.876;2023-02-13T10:21:59;13.45;;;10.45;;
23588;SDS011;11972;48.078;11.876;2023-02-13T10:26:11;14.02;;;10.98;;
23588;SDS011;11972;48.078;11.876;2023-02-13T10:30:19;16.52;;;12.48;;
23588;SDS011;11972;48.078;11.876;2023-02-13T10:34:25;15.32;;;10.90;;
23588;SDS011;11972;48.078;11.876;2023-02-13T10:38:31;12.80;;;10.77;;
23588;SDS011;11972;48.078;11.876;2023-02-13T10:51:23;15.45;;;11.48;;
23588;SDS011;11972;48.078;11.876;2023-02-13T11:04:12;14.80;;;10.80;;
23588;SDS011;11972;48.078;11.876;2023-02-13T11:08:27;13.82;;;10.82;;
23588;SDS011;11972;48.078;11.876;2023-02-13T11:12:32;14.20;;;10.98;;
23588;SDS011;11972;48.078;11.876;2023-02-13T11:16:40;16.13;;;11.27;;
23588;SDS011;11972;48.078;11.876;2023-02-13T11:21:00;13.40;;;9.98;;
23588;SDS011;11972;48.078;11.876;2023-02-13T11:25:17;14.40;;;11.38;;
23588;SDS011;11972;48.078;11.876;2023-02-13T11:33:29;12.73;;;10.32;;
23588;SDS011;11972;48.078;11.876;2023-02-13T11:37:29;13.75;;;11.13;;
23588;SDS011;11972;48.078;11.876;2023-02-13T11:41:36;14.38;;;10.55;;
23588;SDS011;11972;48.078;11.876;2023-02-13T11:45:41;12.82;;;10.68;;
23588;SDS011;11972;48.078;11.876;2023-02-13T11:49:45;17.67;;;12.13;;
23588;SDS011;11972;48.078;11.876;2023-02-13T11:53:46;12.90;;;10.95;;
23588;SDS011;11972;48.078;11.876;2023-02-13T11:57:54;14.45;;;11.43;;
23588;SDS011;11972;48.078;11.876;2023-02-13T12:02:01;13.70;;;10.38;;
23588;SDS011;11972;48.078;11.876;2023-02-13T12:10:23;15.68;;;11.65;;
23588;SDS011;11972;48.078;11.876;2023-02-13T12:14:36;14.77;;;11.50;;
23588;SDS011;11972;48.078;11.876;2023-02-13T12:18:40;15.98;;;12.35;;
23588;SDS011;11972;48.078;11.876;2023-02-13T12:22:53;16.13;;;12.00;;
23588;SDS011;11972;48.078;11.876;2023-02-13T12:27:07;13.77;;;11.15;;
23588;SDS011;11972;48.078;11.876;2023-02-13T12:31:22;14.48;;;11.45;;
23588;SDS011;11972;48.078;11.876;2023-02-13T12:39:35;14.73;;;11.57;;
23588;SDS011;11972;48.078;11.876;2023-02-13T13:00:56;14.15;;;11.57;;
23588;SDS011;11972;48.078;11.876;2023-02-13T13:05:22;16.33;;;11.98;;
23588;SDS011;11972;48.078;11.876;2023-02-13T13:13:48;17.83;;;13.38;;
23588;SDS011;11972;48.078;11.876;2023-02-13T13:17:56;15.82;;;12.45;;
23588;SDS011;11972;48.078;11.876;2023-02-13T13:22:04;14.80;;;12.05;;
23588;SDS011;11972;48.078;11.876;2023-02-13T13:26:21;16.48;;;12.25;;
23588;SDS011;11972;48.078;11.876;2023-02-13T13:30:36;15.80;;;11.77;;
23588;SDS011;11972;48.078;11.876;2023-02-13T13:34:38;17.63;;;12.68;;
23588;SDS011;11972;48.078;11.876;2023-02-13T13:43:02;17.90;;;12.60;;
23588;SDS011;11972;48.078;11.876;2023-02-13T13:51:33;16.27;;;13.02;;
23588;SDS011;11972;48.078;11.876;2023-02-13T14:03:51;19.92;;;13.50;;
23588;SDS011;11972;48.078;11.876;2023-02-13T14:07:55;16.27;;;11.75;;
23588;SDS011;11972;48.078;11.876;2023-02-13T14:12:04;15.57;;;12.73;;
23588;SDS011;11972;48.078;11.876;2023-02-13T14:16:36;19.42;;;13.35;;
23588;SDS011;11972;48.078;11.876;2023-02-13T14:24:54;17.95;;;13.38;;
23588;SDS011;11972;48.078;11.876;2023-02-13T14:28:57;17.52;;;12.63;;
23588;SDS011;11972;48.078;11.876;2023-02-13T14:33:04;16.03;;;12.93;;
23588;SDS011;11972;48.078;11.876;2023-02-13T14:45:39;16.63;;;13.10;;
23588;SDS011;11972;48.078;11.876;2023-02-13T14:49:59;13.50;;;10.98;;
23588;SDS011;11972;48.078;11.876;2023-02-13T14:54:04;13.45;;;11.32;;
23588;SDS011;11972;48.078;11.876;2023-02-13T14:58:12;15.32;;;12.10;;
23588;SDS011;11972;48.078;11.876;2023-02-13T15:06:32;17.55;;;13.38;;
23588;SDS011;11972;48.078;11.876;2023-02-13T15:14:45;21.15;;;15.13;;
23588;SDS011;11972;48.078;11.876;2023-02-13T15:18:49;17.10;;;13.52;;
23588;SDS011;11972;48.078;11.876;2023-02-13T15:22:51;17.98;;;14.27;;
23588;SDS011;11972;48.078;11.876;2023-02-13T15:26:54;16.83;;;13.45;;
23588;SDS011;11972;48.078;11.876;2023-02-13T15:31:20;16.50;;;13.13;;
23588;SDS011;11972;48.078;11.876;2023-02-13T15:35:26;14.70;;;12.07;;
23588;SDS011;11972;48.078;11.876;2023-02-13T15:39:30;14.18;;;11.32;;
23588;SDS011;11972;48.078;11.876;2023-02-13T15:43:35;15.23;;;12.13;;
23588;SDS011;11972;48.078;11.876;2023-02-13T15:47:43;15.75;;;11.88;;
23588;SDS011;11972;48.078;11.876;2023-02-13T15:51:44;18.83;;;13.05;;
23588;SDS011;11972;48.078;11.876;2023-02-13T15:56:02;15.38;;;12.45;;
23588;SDS011;11972;48.078;11.876;2023-02-13T16:00:04;15.18;;;12.70;;
23588;SDS011;11972;48.078;11.876;2023-02-13T16:04:07;15.13;;;12.57;;
23588;SDS011;11972;48.078;11.876;2023-02-13T16:08:23;15.15;;;12.20;;
23588;SDS011;11972;48.078;11.876;2023-02-13T16:12:25;30.48;;;15.55;;
23588;SDS011;11972;48.078;11.876;2023-02-13T16:16:27;16.02;;;13.05;;
23588;SDS011;11972;48.078;11.876;2023-02-13T16:20:30;15.88;;;12.25;;
23588;SDS011;11972;48.078;11.876;2023-02-13T16:24:34;16.05;;;12.63;;
23588;SDS011;11972;48.078;11.876;2023-02-13T16:28:35;16.00;;;12.23;;
23588;SDS011;11972;48.078;11.876;2023-02-13T16:32:36;18.73;;;13.57;;
23588;SDS011;11972;48.078;11.876;2023-02-13T16:36:37;16.33;;;13.18;;
23588;SDS011;11972;48.078;11.876;2023-02-13T16:40:41;18.42;;;12.95;;
23588;SDS011;11972;48.078;11.876;2023-02-13T16:44:43;18.40;;;13.38;;
23588;SDS011;11972;48.078;11.876;2023-02-13T16:53:00;21.67;;;15.48;;
23588;SDS011;11972;48.078;11.876;2023-02-13T17:01:14;17.88;;;13.43;;
23588;SDS011;11972;48.078;11.876;2023-02-13T17:05:18;26.10;;;15.45;;
23588;SDS011;11972;48.078;11.876;2023-02-13T17:09:28;24.67;;;16.88;;
23588;SDS011;11972;48.078;11.876;2023-02-13T17:13:28;19.17;;;13.95;;
23588;SDS011;11972;48.078;11.876;2023-02-13T17:17:29;17.63;;;13.57;;
23588;SDS011;11972;48.078;11.876;2023-02-13T17:21:31;21.35;;;14.63;;
23588;SDS011;11972;48.078;11.876;2023-02-13T17:25:33;57.08;;;17.63;;
23588;SDS011;11972;48.078;11.876;2023-02-13T17:29:35;25.20;;;18.85;;
23588;SDS011;11972;48.078;11.876;2023-02-13T17:33:35;24.77;;;16.73;;
23588;SDS011;11972;48.078;11.876;2023-02-13T17:37:39;28.25;;;16.63;;
23588;SDS011;11972;48.078;11.876;2023-02-13T17:41:41;20.52;;;16.15;;
23588;SDS011;11972;48.078;11.876;2023-02-13T17:45:41;25.08;;;16.63;;
23588;SDS011;11972;48.078;11.876;2023-02-13T17:49:42;24.85;;;16.70;;
23588;SDS011;11972;48.078;11.876;2023-02-13T17:53:43;25.65;;;16.92;;
23588;SDS011;11972;48.078;11.876;2023-02-13T17:57:43;27.65;;;16.58;;
23588;SDS011;11972;48.078;11.876;2023-02-13T18:01:43;19.45;;;15.35;;
23588;SDS011;11972;48.078;11.876;2023-02-13T18:05:45;26.55;;;16.98;;
23588;SDS011;11972;48.078;11.876;2023-02-13T18:09:47;26.92;;;17.60;;
23588;SDS011;11972;48.078;11.876;2023-02-13T18:13:47;48.42;;;20.52;;
23588;SDS011;11972;48.078;11.876;2023-02-13T18:17:48;231.25;;;29.58;;
23588;SDS011;11972;48.078;11.876;2023-02-13T18:21:48;43.38;;;23.83;;
23588;SDS011;11972;48.078;11.876;2023-02-13T18:25:48;28.83;;;19.20;;
23588;SDS011;11972;48.078;11.876;2023-02-13T18:29:49;26.10;;;19.10;;
23588;SDS011;11972;48.078;11.876;2023-02-13T18:33:49;26.88;;;18.30;;
23588;SDS011;11972;48.078;11.876;2023-02-13T18:37:49;33.58;;;20.52;;
23588;SDS011;11972;48.078;11.876;2023-02-13T18:41:50;31.48;;;18.50;;
23588;SDS011;11972;48.078;11.876;2023-02-13T18:45:51;34.35;;;21.60;;
23588;SDS011;11972;48.078;11.876;2023-02-13T18:49:51;30.02;;;20.73;;
23588;SDS011;11972;48.078;11.876;2023-02-13T18:53:51;31.98;;;22.42;;
23588;SDS011;11972;48.078;11.876;2023-02-13T18:57:52;29.25;;;18.50;;
23588;SDS011;11972;48.078;11.876;2023-02-13T19:01:52;30.48;;;17.75;;
23588;SDS011;11972;48.078;11.876;2023-02-13T19:05:52;36.88;;;23.20;;
23588;SDS011;11972;48.078;11.876;2023-02-13T19:09:53;42.35;;;20.33;;
23588;SDS011;11972;48.078;11.876;2023-02-13T19:13:57;34.88;;;19.20;;
23588;SDS011;11972;48.078;11.876;2023-02-13T19:17:59;38.33;;;19.10;;
23588;SDS011;11972;48.078;11.876;2023-02-13T19:21:59;31.38;;;19.25;;
23588;SDS011;11972;48.078;11.876;2023-02-13T19:26:04;36.38;;;17.23;;
23588;SDS011;11972;48.078;11.876;2023-02-13T19:30:05;32.10;;;19.15;;
23588;SDS011;11972;48.078;11.876;2023-02-13T19:34:08;31.80;;;19.23;;
23588;SDS011;11972;48.078;11.876;2023-02-13T19:38:08;84.13;;;19.30;;
23588;SDS011;11972;48.078;11.876;2023-02-13T19:42:09;71.90;;;18.80;;
23588;SDS011;11972;48.078;11.876;2023-02-13T19:46:09;57.65;;;17.73;;
23588;SDS011;11972;48.078;11.876;2023-02-13T19:50:12;87.13;;;18.98;;
23588;SDS011;11972;48.078;11.876;2023-02-13T19:54:13;47.67;;;18.15;;
23588;SDS011;11972;48.078;11.876;2023-02-13T19:58:14;45.00;;;19.00;;
23588;SDS011;11972;48.078;11.876;2023-02-13T20:02:15;64.72;;;18.83;;
23588;SDS011;11972;48.078;11.876;2023-02-13T20:06:18;59.03;;;18.70;;
23588;SDS011;11972;48.078;11.876;2023-02-13T20:10:20;55.83;;;18.02;;
23588;SDS011;11972;48.078;11.876;2023-02-13T20:14:21;67.97;;;19.02;;
23588;SDS011;11972;48.078;11.876;2023-02-13T20:18:21;64.07;;;20.58;;
23588;SDS011;11972;48.078;11.876;2023-02-13T20:22:21;97.45;;;20.58;;
23588;SDS011;11972;48.078;11.876;2023-02-13T20:26:21;66.25;;;21.77;;
23588;SDS011;11972;48.078;11.876;2023-02-13T20:30:23;46.90;;;19.90;;
23588;SDS011;11972;48.078;11.876;2023-02-13T20:34:23;37.80;;;20.05;;
23588;SDS011;11972;48.078;11.876;2023-02-13T20:38:24;66.05;;;18.65;;
23588;SDS011;11972;48.078;11.876;2023-02-13T20:42:24;52.78;;;19.70;;
23588;SDS011;11972;48.078;11.876;2023-02-13T20:46:25;37.15;;;19.08;;
23588;SDS011;11972;48.078;11.876;2023-02-13T20:50:28;94.70;;;18.92;;
23588;SDS011;11972;48.078;11.876;2023-02-13T20:54:28;64.47;;;18.85;;
23588;SDS011;11972;48.078;11.876;2023-02-13T20:58:29;71.63;;;18.23;;
23588;SDS011;11972;48.078;11.876;2023-02-13T21:02:30;78.80;;;19.17;;
23588;SDS011;11972;48.078;11.876;2023-02-13T21:06:32;89.90;;;19.38;;
23588;SDS011;11972;48.078;11.876;2023-02-13T21:10:35;59.75;;;22.45;;
23588;SDS011;11972;48.078;11.876;2023-02-13T21:14:36;165.57;;;20.90;;
23588;SDS011;11972;48.078;11.876;2023-02-13T21:18:38;109.38;;;19.88;;
23588;SDS011;11972;48.078;11.876;2023-02-13T21:22:40;133.30;;;19.40;;
23588;SDS011;11972;48.078;11.876;2023-02-13T21:26:40;74.18;;;17.48;;
23588;SDS011;11972;48.078;11.876;2023-02-13T21:30:41;95.63;;;17.65;;
23588;SDS011;11972;48.078;11.876;2023-02-13T21:34:42;100.72;;;18.67;;
23588;SDS011;11972;48.078;11.876;2023-02-13T21:38:43;75.05;;;18.77;;
23588;SDS011;11972;48.078;11.876;2023-02-13T21:42:43;124.57;;;20.02;;
23588;SDS011;11972;48.078;11.876;2023-02-13T21:46:43;74.80;;;19.42;;
23588;SDS011;11972;48.078;11.876;2023-02-13T21:50:44;151.43;;;19.02;;
23588;SDS011;11972;48.078;11.876;2023-02-13T21:54:45;104.70;;;17.95;;
23588;SDS011;11972;48.078;11.876;2023-02-13T21:58:47;89.97;;;16.70;;
23588;SDS011;11972;48.078;11.876;2023-02-13T22:02:47;88.82;;;17.33;;
23588;SDS011;11972;48.078;11.876;2023-02-13T22:06:55;51.10;;;15.80;;
23588;SDS011;11972;48.078;11.876;2023-02-13T22:10:56;66.15;;;16.40;;
23588;SDS011;11972;48.078;11.876;2023-02-13T22:14:57;43.72;;;16.40;;
23588;SDS011;11972;48.078;11.876;2023-02-13T22:18:58;67.05;;;17.40;;
23588;SDS011;11972;48.078;11.876;2023-02-13T22:22:59;87.63;;;17.55;;
23588;SDS011;11972;48.078;11.876;2023-02-13T22:26:59;42.92;;;16.50;;
23588;SDS011;11972;48.078;11.876;2023-02-13T22:30:59;63.95;;;15.38;;
23588;SDS011;11972;48.078;11.876;2023-02-13T22:35:07;62.92;;;15.95;;
23588;SDS011;11972;48.078;11.876;2023-02-13T22:39:08;23.50;;;13.80;;
23588;SDS011;11972;48.078;11.876;2023-02-13T22:43:09;73.07;;;15.80;;
23588;SDS011;11972;48.078;11.876;2023-02-13T22:47:10;67.40;;;15.60;;
23588;SDS011;11972;48.078;11.876;2023-02-13T22:51:11;46.92;;;15.70;;
23588;SDS011;11972;48.078;11.876;2023-02-13T22:55:13;27.35;;;14.07;;
23588;SDS011;11972;48.078;11.876;2023-02-13T22:59:13;30.50;;;15.30;;
23588;SDS011;11972;48.078;11.876;2023-02-13T23:03:14;48.90;;;14.95;;
23588;SDS011;11972;48.078;11.876;2023-02-13T23:07:14;51.28;;;15.63;;
23588;SDS011;11972;48.078;11.876;2023-02-13T23:11:17;65.72;;;15.38;;
23588;SDS011;11972;48.078;11.876;2023-02-13T23:15:36;83.05;;;16.45;;
23588;SDS011;11972;48.078;11.876;2023-02-13T23:19:37;49.90;;;16.25;;
23588;SDS011;11972;48.078;11.876;2023-02-13T23:23:37;26.92;;;14.52;;
23588;SDS011;11972;48.078;11.876;2023-02-13T23:27:37;49.65;;;15.93;;
23588;SDS011;11972;48.078;11.876;2023-02-13T23:31:38;37.33;;;16.23;;
23588;SDS011;11972;48.078;11.876;2023-02-13T23:35:38;68.88;;;16.38;;
23588;SDS011;11972;48.078;11.876;2023-02-13T23:39:38;53.55;;;16.42;;
23588;SDS011;11972;48.078;11.876;2023-02-13T23:43:39;94.50;;;18.50;;
23588;SDS011;11972;48.078;11.876;2023-02-13T23:47:39;84.05;;;18.13;;
23588;SDS011;11972;48.078;11.876;2023-02-13T23:51:39;81.28;;;18.33;;
23588;SDS011;11972;48.078;11.876;2023-02-13T23:55:40;35.85;;;16.00;;
23588;SDS011;11972;48.078;11.876;2023-02-13T23:59:40;32.05;;;17.35;;
